createdAt,value
2018-12-18T00:02:07.353Z,47.50
2018-12-18T00:04:34.788Z,46.13
2018-12-18T00:07:02.626Z,70.60
2018-12-18T00:09:30.075Z,72.67
2018-12-18T00:11:59.434Z,88.53
2018-12-18T00:14:27.917Z,109.77
2018-12-18T00:16:55.757Z,81.33
2018-12-18T00:19:23.186Z,80.90
2018-12-18T00:21:50.605Z,129.20
2018-12-18T00:24:18.036Z,112.73
2018-12-18T00:26:45.457Z,89.97
2018-12-18T00:29:12.892Z,113.97
2018-12-18T00:31:40.780Z,100.30
2018-12-18T00:34:08.183Z,119.90
2018-12-18T00:36:35.604Z,101.07
2018-12-18T00:39:04.228Z,102.13
2018-12-18T00:41:32.244Z,108.73
2018-12-18T00:43:59.670Z,110.40
2018-12-18T00:46:29.009Z,96.57
2018-12-18T00:48:56.416Z,123.50
2018-12-18T00:51:25.257Z,111.33
2018-12-18T00:53:52.676Z,79.73
2018-12-18T00:56:23.024Z,106.03
2018-12-18T00:58:50.412Z,94.70
2018-12-18T01:01:17.847Z,89.73
2018-12-18T01:03:52.723Z,124.97
2018-12-18T01:06:17.488Z,120.63
2018-12-18T01:08:44.920Z,134.30
2018-12-18T01:11:12.341Z,105.97
2018-12-18T01:13:39.801Z,114.67
2018-12-18T01:16:07.242Z,87.90
2018-12-18T01:18:34.658Z,117.67
2018-12-18T01:21:02.640Z,102.53
2018-12-18T01:23:30.070Z,107.37
2018-12-18T01:25:57.549Z,93.67
2018-12-18T01:28:24.980Z,84.93
2018-12-18T01:30:52.824Z,85.10
2018-12-18T01:33:20.826Z,80.37
2018-12-18T01:35:48.246Z,101.17
2018-12-18T01:38:16.445Z,108.50
2018-12-18T01:40:43.920Z,70.80
2018-12-18T01:43:11.345Z,71.80
2018-12-18T01:45:38.768Z,109.00
2018-12-18T01:48:06.184Z,110.30
2018-12-18T01:50:33.722Z,96.77
2018-12-18T01:53:01.117Z,108.60
2018-12-18T01:55:28.583Z,122.10
2018-12-18T01:57:56.084Z,86.00
2018-12-18T02:00:23.540Z,89.80
2018-12-18T02:02:51.040Z,110.63
2018-12-18T02:05:18.460Z,115.97
2018-12-18T02:07:45.971Z,129.87
2018-12-18T02:10:13.434Z,103.33
2018-12-18T02:12:40.902Z,103.20
2018-12-18T02:15:08.425Z,118.37
2018-12-18T02:17:35.853Z,117.17
2018-12-18T02:20:06.205Z,108.57
2018-12-18T02:22:34.005Z,124.00
2018-12-18T02:25:01.901Z,108.47
2018-12-18T02:27:31.120Z,97.20
2018-12-18T02:29:58.543Z,104.17
2018-12-18T02:32:25.964Z,98.67
2018-12-18T02:34:53.398Z,78.17
2018-12-18T02:37:20.824Z,111.70
2018-12-18T02:39:48.284Z,99.90
2018-12-18T02:42:15.701Z,100.20
2018-12-18T02:44:43.133Z,110.47
2018-12-18T02:47:10.556Z,91.47
2018-12-18T02:49:38.411Z,102.20
2018-12-18T02:52:05.829Z,83.63
2018-12-18T02:54:33.256Z,110.40
2018-12-18T02:57:00.693Z,98.80
2018-12-18T02:59:28.244Z,79.40
2018-12-18T03:01:55.687Z,89.43
2018-12-18T03:04:25.864Z,73.07
2018-12-18T03:06:53.984Z,97.53
2018-12-18T03:09:21.428Z,85.67
2018-12-18T03:11:48.894Z,104.33
2018-12-18T03:14:16.320Z,99.03
2018-12-18T03:16:43.793Z,71.27
2018-12-18T03:19:12.073Z,70.00
2018-12-18T03:21:40.994Z,67.37
2018-12-18T03:24:08.427Z,69.00
2018-12-18T03:26:35.830Z,60.70
2018-12-18T03:29:03.281Z,69.40
2018-12-18T03:31:30.994Z,78.90
2018-12-18T03:33:59.336Z,85.90
2018-12-18T03:36:26.739Z,86.30
2018-12-18T03:38:56.108Z,63.57
2018-12-18T03:41:23.598Z,84.80
2018-12-18T03:43:51.665Z,83.10
2018-12-18T03:46:19.625Z,76.23
2018-12-18T03:48:47.080Z,71.20
2018-12-18T03:51:14.969Z,122.07
2018-12-18T03:53:42.374Z,76.00
2018-12-18T03:56:09.798Z,76.20
2018-12-18T03:58:37.230Z,82.17
2018-12-18T04:01:05.301Z,64.77
2018-12-18T04:03:32.743Z,70.83
2018-12-18T04:06:00.248Z,73.73
2018-12-18T04:08:27.780Z,72.40
2018-12-18T04:10:55.916Z,74.27
2018-12-18T04:13:23.341Z,80.70
2018-12-18T04:15:50.843Z,121.80
2018-12-18T04:18:18.345Z,107.03
2018-12-18T04:20:45.863Z,74.07
2018-12-18T04:23:13.363Z,107.23
2018-12-18T04:25:40.784Z,88.80
2018-12-18T04:28:08.625Z,137.73
2018-12-18T04:30:38.511Z,66.37
2018-12-18T04:33:06.456Z,97.57
2018-12-18T04:35:33.904Z,137.30
2018-12-18T04:38:01.334Z,106.97
2018-12-18T04:40:28.748Z,83.80
2018-12-18T04:42:56.429Z,90.13
2018-12-18T04:45:23.826Z,93.33
2018-12-18T04:47:51.247Z,96.83
2018-12-18T04:50:18.696Z,104.00
2018-12-18T04:52:46.261Z,92.03
2018-12-18T04:55:13.685Z,131.77
2018-12-18T04:57:41.116Z,101.63
2018-12-18T05:00:10.646Z,106.50
2018-12-18T05:02:38.424Z,103.03
2018-12-18T05:05:06.045Z,98.10
2018-12-18T05:07:34.551Z,85.93
2018-12-18T05:10:02.075Z,87.60
2018-12-18T05:12:29.812Z,78.17
2018-12-18T05:14:57.357Z,95.90
2018-12-18T05:17:24.858Z,91.10
2018-12-18T05:19:52.277Z,159.47
2018-12-18T05:22:19.708Z,95.70
2018-12-18T05:24:47.848Z,65.60
2018-12-18T05:27:15.274Z,76.50
2018-12-18T05:29:42.696Z,65.97
2018-12-18T05:32:10.173Z,67.27
2018-12-18T05:34:37.587Z,66.00
2018-12-18T05:37:05.580Z,56.63
2018-12-18T05:39:33.003Z,67.50
2018-12-18T05:42:01.391Z,61.33
2018-12-18T05:44:28.828Z,66.17
2018-12-18T05:46:56.262Z,53.87
2018-12-18T05:49:30.917Z,59.77
2018-12-18T05:54:33.626Z,57.00
2018-12-18T05:57:01.674Z,58.20
2018-12-18T05:59:29.088Z,72.10
2018-12-18T06:01:56.554Z,64.47
2018-12-18T06:04:23.964Z,67.10
2018-12-18T06:06:51.397Z,64.00
2018-12-18T06:09:18.813Z,67.33
2018-12-18T06:11:46.296Z,65.03
2018-12-18T06:14:13.712Z,65.37
2018-12-18T06:16:41.171Z,67.93
2018-12-18T06:19:08.598Z,60.33
2018-12-18T06:21:36.103Z,60.17
2018-12-18T06:24:03.574Z,64.27
2018-12-18T06:26:31.392Z,73.10
2018-12-18T06:28:58.888Z,68.77
2018-12-18T06:31:27.010Z,86.30
2018-12-18T06:33:54.925Z,72.90
2018-12-18T06:36:22.325Z,75.10
2018-12-18T06:38:50.156Z,72.40
2018-12-18T06:41:17.610Z,97.67
2018-12-18T06:43:45.033Z,100.20
2018-12-18T06:46:12.525Z,94.83
2018-12-18T06:48:40.355Z,85.27
2018-12-18T06:51:07.774Z,82.67
2018-12-18T06:53:35.336Z,90.57
2018-12-18T06:56:02.750Z,85.93
2018-12-18T06:58:30.174Z,86.77
2018-12-18T07:00:58.016Z,69.97
2018-12-18T07:03:25.435Z,64.50
2018-12-18T07:05:53.029Z,75.30
2018-12-18T07:08:20.840Z,90.23
2018-12-18T07:10:48.256Z,87.80
2018-12-18T07:13:15.671Z,76.27
2018-12-18T07:15:45.665Z,75.67
2018-12-18T07:18:13.085Z,87.30
2018-12-18T07:20:40.499Z,91.70
2018-12-18T07:23:08.320Z,87.77
2018-12-18T07:25:35.823Z,89.47
2018-12-18T07:28:03.509Z,94.73
2018-12-18T07:30:31.012Z,84.87
2018-12-18T07:32:58.448Z,110.93
2018-12-18T07:35:25.914Z,85.03
2018-12-18T07:37:53.328Z,104.97
2018-12-18T07:40:21.469Z,101.50
2018-12-18T07:42:48.895Z,95.03
2018-12-18T07:45:16.769Z,100.83
2018-12-18T07:47:44.212Z,101.57
2018-12-18T07:50:11.751Z,115.27
2018-12-18T07:52:39.171Z,114.73
2018-12-18T07:55:06.660Z,114.20
2018-12-18T07:57:37.656Z,106.17
2018-12-18T08:00:05.973Z,114.17
2018-12-18T08:02:33.504Z,97.77
2018-12-18T08:05:01.326Z,97.50
2018-12-18T08:07:28.861Z,114.77
2018-12-18T08:09:56.304Z,105.50
2018-12-18T08:12:25.662Z,112.93
2018-12-18T08:14:53.159Z,113.97
2018-12-18T08:17:20.625Z,129.13
2018-12-18T08:19:48.103Z,107.03
2018-12-18T08:22:15.489Z,96.40
2018-12-18T08:24:42.990Z,102.57
2018-12-18T08:27:10.463Z,108.57
2018-12-18T08:29:37.872Z,100.30
2018-12-18T08:32:05.301Z,92.57
2018-12-18T08:34:33.268Z,85.20
2018-12-18T08:37:00.924Z,87.03
2018-12-18T08:39:29.299Z,80.33
2018-12-18T08:41:56.732Z,82.57
2018-12-18T08:44:24.152Z,81.80
2018-12-18T08:46:52.453Z,84.13
2018-12-18T08:49:20.941Z,84.30
2018-12-18T08:51:48.352Z,73.17
2018-12-18T08:54:15.768Z,75.97
2018-12-18T08:56:43.216Z,73.90
2018-12-18T08:59:11.048Z,71.30
2018-12-18T09:01:38.468Z,60.47
2018-12-18T09:04:06.133Z,68.17
2018-12-18T09:06:34.223Z,57.83
2018-12-18T09:09:01.702Z,55.17
2018-12-18T09:11:31.705Z,46.47
2018-12-18T09:13:59.126Z,33.30
2018-12-18T09:16:32.160Z,30.63
2018-12-18T09:18:59.588Z,34.47
2018-12-18T09:21:27.017Z,29.50
2018-12-18T09:23:56.368Z,35.33
2018-12-18T09:26:24.335Z,28.17
2018-12-18T09:28:52.324Z,28.60
2018-12-18T09:31:20.428Z,26.93
2018-12-18T09:33:47.857Z,28.83
2018-12-18T09:36:15.452Z,30.87
2018-12-18T09:38:48.526Z,27.10
2018-12-18T09:41:21.551Z,32.63
2018-12-18T09:43:54.587Z,32.90
2018-12-18T09:46:22.988Z,33.80
2018-12-18T09:48:50.416Z,33.10
2018-12-18T09:51:18.172Z,40.53
2018-12-18T09:53:45.668Z,133.27
2018-12-18T09:56:13.236Z,45.73
2018-12-18T09:58:43.905Z,37.33
2018-12-18T10:01:11.328Z,38.10
2018-12-18T10:03:38.747Z,35.90
2018-12-18T10:06:06.176Z,37.97
2018-12-18T10:08:34.300Z,35.80
2018-12-18T10:11:01.716Z,39.20
2018-12-18T10:13:29.213Z,37.07
2018-12-18T10:15:57.309Z,30.73
2018-12-18T10:18:24.791Z,33.13
2018-12-18T10:20:52.227Z,34.63
2018-12-18T10:23:19.647Z,34.83
2018-12-18T10:25:47.069Z,35.17
2018-12-18T10:28:15.984Z,33.87
2018-12-18T10:30:43.472Z,33.30
2018-12-18T10:33:11.020Z,39.47
2018-12-18T10:35:38.441Z,51.83
2018-12-18T10:38:05.868Z,37.20
2018-12-18T10:40:33.289Z,28.47
2018-12-18T10:43:01.010Z,26.47
2018-12-18T10:45:30.555Z,24.27
2018-12-18T10:47:58.002Z,22.57
2018-12-18T10:50:25.422Z,23.30
2018-12-18T10:52:53.236Z,22.33
2018-12-18T10:55:20.667Z,19.13
2018-12-18T10:57:48.120Z,21.63
2018-12-18T11:00:17.572Z,21.73
2018-12-18T11:02:49.704Z,23.03
2018-12-18T11:05:17.231Z,23.37
2018-12-18T11:07:44.648Z,24.07
2018-12-18T11:10:12.171Z,22.93
2018-12-18T11:12:39.596Z,23.87
2018-12-18T11:15:07.853Z,21.03
2018-12-18T11:17:35.388Z,23.37
2018-12-18T11:20:04.801Z,21.80
2018-12-18T11:22:32.243Z,18.83
2018-12-18T11:25:00.366Z,18.03
2018-12-18T11:27:30.328Z,19.37
2018-12-18T11:29:58.337Z,16.93
2018-12-18T11:32:25.768Z,20.00
2018-12-18T11:34:53.192Z,20.77
2018-12-18T11:37:20.665Z,18.90
2018-12-18T11:39:48.084Z,19.97
2018-12-18T11:42:15.550Z,14.77
2018-12-18T11:44:44.813Z,15.37
2018-12-18T11:47:12.236Z,17.57
2018-12-18T11:49:39.660Z,18.90
2018-12-18T11:52:07.080Z,18.23
2018-12-18T11:54:34.620Z,19.63
2018-12-18T11:57:02.052Z,17.83
2018-12-18T11:59:30.352Z,18.97
2018-12-18T12:01:57.778Z,17.80
2018-12-18T12:04:25.217Z,18.03
2018-12-18T12:06:52.804Z,19.17
2018-12-18T12:09:20.224Z,16.00
2018-12-18T12:11:47.755Z,18.23
2018-12-18T12:14:15.255Z,16.23
2018-12-18T12:16:42.676Z,18.80
2018-12-18T12:19:10.313Z,16.30
2018-12-18T12:21:37.776Z,15.67
2018-12-18T12:24:05.256Z,16.47
2018-12-18T12:26:34.976Z,13.30
2018-12-18T12:29:02.433Z,21.03
2018-12-18T12:31:29.931Z,19.33
2018-12-18T12:33:57.420Z,16.80
2018-12-18T12:36:29.584Z,17.53
2018-12-18T12:38:54.293Z,17.50
2018-12-18T12:41:21.728Z,20.10
2018-12-18T12:43:49.212Z,16.63
2018-12-18T12:46:16.631Z,16.60
2018-12-18T12:48:49.948Z,17.40
2018-12-18T12:51:17.449Z,17.73
2018-12-18T12:53:44.879Z,17.43
2018-12-18T12:56:12.293Z,20.07
2018-12-18T12:58:39.842Z,14.23
2018-12-18T13:01:07.264Z,14.23
2018-12-18T13:03:34.695Z,14.37
2018-12-18T13:06:03.284Z,14.53
2018-12-18T13:08:31.248Z,13.17
2018-12-18T13:10:58.701Z,12.90
2018-12-18T13:13:26.136Z,11.10
2018-12-18T13:15:53.551Z,12.20
2018-12-18T13:18:20.971Z,9.00
2018-12-18T13:20:49.205Z,7.40
2018-12-18T13:23:16.624Z,8.17
2018-12-18T13:25:44.034Z,5.47
2018-12-18T13:28:11.868Z,5.27
2018-12-18T13:30:39.505Z,4.30
2018-12-18T13:33:06.922Z,5.77
2018-12-18T13:35:34.411Z,6.50
2018-12-18T13:38:01.883Z,5.17
2018-12-18T13:40:29.315Z,5.47
2018-12-18T13:42:56.803Z,4.90
2018-12-18T13:45:24.219Z,8.70
2018-12-18T13:47:51.627Z,8.30
2018-12-18T13:50:19.088Z,8.77
2018-12-18T13:52:46.508Z,6.43
2018-12-18T13:55:13.929Z,7.00
2018-12-18T13:57:41.847Z,7.43
2018-12-18T14:00:09.348Z,6.27
2018-12-18T14:02:36.976Z,9.57
2018-12-18T14:05:05.328Z,8.27
2018-12-18T14:07:32.739Z,7.13
2018-12-18T14:10:00.287Z,5.80
2018-12-18T14:12:27.696Z,5.37
2018-12-18T14:14:55.111Z,8.53
2018-12-18T14:17:22.532Z,7.43
2018-12-18T14:19:49.975Z,9.97
2018-12-18T14:22:17.392Z,6.73
2018-12-18T14:24:45.656Z,5.47
2018-12-18T14:27:13.936Z,10.63
2018-12-18T14:29:41.384Z,6.83
2018-12-18T14:32:09.448Z,4.83
2018-12-18T14:34:36.833Z,5.40
2018-12-18T14:37:04.239Z,7.60
2018-12-18T14:39:31.711Z,4.83
2018-12-18T14:41:59.120Z,5.93
2018-12-18T14:44:26.548Z,3.30
2018-12-18T14:46:53.996Z,5.90
2018-12-18T14:49:22.255Z,10.10
2018-12-18T14:51:49.676Z,6.40
2018-12-18T14:54:17.252Z,10.33
2018-12-18T14:56:44.673Z,8.00
2018-12-18T14:59:12.078Z,6.53
2018-12-18T15:01:39.556Z,6.40
2018-12-18T15:04:06.975Z,6.10
2018-12-18T15:06:34.385Z,7.53
2018-12-18T15:09:01.981Z,4.50
2018-12-18T15:11:29.400Z,5.37
2018-12-18T15:13:56.816Z,7.90
2018-12-18T15:16:24.232Z,6.97
2018-12-18T15:18:51.645Z,7.17
2018-12-18T15:21:19.064Z,5.53
2018-12-18T15:23:46.472Z,3.77
2018-12-18T15:26:13.912Z,6.70
2018-12-18T15:28:41.432Z,5.07
2018-12-18T15:31:08.856Z,5.77
2018-12-18T15:33:36.316Z,5.73
2018-12-18T15:36:03.957Z,4.83
2018-12-18T15:38:31.375Z,5.20
2018-12-18T15:40:58.783Z,8.50
2018-12-18T15:43:26.280Z,6.73
2018-12-18T15:45:53.772Z,4.33
2018-12-18T15:48:21.232Z,5.07
2018-12-18T15:50:48.681Z,5.50
2018-12-18T15:53:16.141Z,5.47
2018-12-18T15:55:43.649Z,3.20
2018-12-18T15:58:11.856Z,6.93
2018-12-18T16:00:39.264Z,5.53
2018-12-18T16:03:06.692Z,11.10
2018-12-18T16:05:34.105Z,3.87
2018-12-18T16:08:01.592Z,8.77
2018-12-18T16:10:29.087Z,4.80
2018-12-18T16:12:56.581Z,6.33
2018-12-18T16:15:24.002Z,7.73
2018-12-18T16:17:51.494Z,7.63
2018-12-18T16:20:18.901Z,5.03
2018-12-18T16:22:47.071Z,4.67
2018-12-18T16:25:15.094Z,4.17
2018-12-18T16:27:42.663Z,7.67
2018-12-18T16:30:10.080Z,10.07
2018-12-18T16:32:38.459Z,9.20
2018-12-18T16:35:06.056Z,10.43
2018-12-18T16:37:33.498Z,6.80
2018-12-18T16:40:00.956Z,7.00
2018-12-18T16:42:28.372Z,9.57
2018-12-18T16:44:55.801Z,9.13
2018-12-18T16:47:23.645Z,6.73
2018-12-18T16:49:51.681Z,4.23
2018-12-18T16:52:19.491Z,7.77
2018-12-18T16:54:46.904Z,9.73
2018-12-18T16:57:14.317Z,8.57
2018-12-18T16:59:42.649Z,10.93
2018-12-18T17:02:10.059Z,10.90
2018-12-18T17:04:37.468Z,9.47
2018-12-18T17:07:04.885Z,19.47
2018-12-18T17:09:32.418Z,15.93
2018-12-18T17:11:59.910Z,14.80
2018-12-18T17:14:27.364Z,28.87
2018-12-18T17:16:54.782Z,35.63
2018-12-18T17:19:22.274Z,37.67
2018-12-18T17:21:50.308Z,65.43
2018-12-18T17:24:17.812Z,63.13
2018-12-18T17:26:45.269Z,42.00
2018-12-18T17:29:12.698Z,56.20
2018-12-18T17:31:40.224Z,54.17
2018-12-18T17:34:07.657Z,40.37
2018-12-18T17:36:35.488Z,43.47
2018-12-18T17:39:04.848Z,32.53
2018-12-18T17:41:38.981Z,27.53
2018-12-18T17:44:06.481Z,23.27
2018-12-18T17:46:33.920Z,24.00
2018-12-18T17:49:01.341Z,27.40
2018-12-18T17:51:28.764Z,20.93
2018-12-18T17:53:56.185Z,20.37
2018-12-18T17:56:23.601Z,12.20
2018-12-18T17:58:51.017Z,17.07
2018-12-18T18:01:18.428Z,16.53
2018-12-18T18:03:45.869Z,28.43
2018-12-18T18:06:13.685Z,29.23
2018-12-18T18:08:41.105Z,20.17
2018-12-18T18:11:08.525Z,19.27
2018-12-18T18:13:35.935Z,14.30
2018-12-18T18:16:03.884Z,14.10
2018-12-18T18:18:31.301Z,15.83
2018-12-18T18:20:59.260Z,15.80
2018-12-18T18:23:29.104Z,15.67
2018-12-18T18:25:56.590Z,20.40
2018-12-18T18:28:24.432Z,19.17
2018-12-18T18:30:51.950Z,17.50
2018-12-18T18:33:19.380Z,15.17
2018-12-18T18:35:48.814Z,20.73
2018-12-18T18:38:16.313Z,14.13
2018-12-18T18:40:43.737Z,17.93
2018-12-18T18:43:11.168Z,20.77
2018-12-18T18:45:38.584Z,17.30
2018-12-18T18:48:06.017Z,21.30
2018-12-18T18:50:33.508Z,11.07
2018-12-18T18:53:00.936Z,13.80
2018-12-18T18:55:28.356Z,14.37
2018-12-18T18:57:55.857Z,15.30
2018-12-18T19:00:23.272Z,13.83
2018-12-18T19:02:50.709Z,14.60
2018-12-18T19:05:18.186Z,10.80
2018-12-18T19:07:45.604Z,16.67
2018-12-18T19:10:13.232Z,17.07
2018-12-18T19:12:40.659Z,13.07
2018-12-18T19:15:09.127Z,14.70
2018-12-18T19:17:36.547Z,13.30
2018-12-18T19:20:05.552Z,10.00
2018-12-18T19:22:32.968Z,14.63
2018-12-18T19:25:00.392Z,13.03
2018-12-18T19:27:27.814Z,12.50
2018-12-18T19:29:56.036Z,12.97
2018-12-18T19:32:23.429Z,12.13
2018-12-18T19:34:50.850Z,10.27
2018-12-18T19:37:18.284Z,11.43
2018-12-18T19:39:46.295Z,10.57
2018-12-18T19:42:13.761Z,10.87
2018-12-18T19:44:41.464Z,9.47
2018-12-18T19:47:08.861Z,9.33
2018-12-18T19:49:36.280Z,10.33
2018-12-18T19:52:04.456Z,10.97
2018-12-18T19:54:31.873Z,14.73
2018-12-18T19:56:59.300Z,9.90
2018-12-18T19:59:26.759Z,12.57
2018-12-18T20:01:54.188Z,10.63
2018-12-18T20:04:21.693Z,10.13
2018-12-18T20:06:49.116Z,12.07
2018-12-18T20:09:16.835Z,10.27
2018-12-18T20:11:44.337Z,19.37
2018-12-18T20:14:12.484Z,23.43
2018-12-18T20:16:40.032Z,14.07
2018-12-18T20:19:07.468Z,13.47
2018-12-18T20:21:34.916Z,17.70
2018-12-18T20:24:02.336Z,19.03
2018-12-18T20:26:29.776Z,13.97
2018-12-18T20:28:58.600Z,12.00
2018-12-18T20:31:26.045Z,13.33
2018-12-18T20:33:53.452Z,13.10
2018-12-18T20:36:20.896Z,16.33
2018-12-18T20:38:48.815Z,13.60
2018-12-18T20:41:16.273Z,10.47
2018-12-18T20:43:43.792Z,15.87
2018-12-18T20:46:11.292Z,13.10
2018-12-18T20:48:39.174Z,13.70
2018-12-18T20:51:06.588Z,13.13
2018-12-18T20:53:34.426Z,21.50
2018-12-18T20:56:01.860Z,17.90
2018-12-18T20:58:29.685Z,14.97
2018-12-18T21:00:57.100Z,12.30
2018-12-18T21:03:24.525Z,15.47
2018-12-18T21:05:54.512Z,15.57
2018-12-18T21:08:23.567Z,17.80
2018-12-18T21:10:51.466Z,15.03
2018-12-18T21:13:24.521Z,17.30
2018-12-18T21:15:51.943Z,17.43
2018-12-18T21:18:19.443Z,13.77
2018-12-18T21:20:47.390Z,15.17
2018-12-18T21:23:14.826Z,14.23
2018-12-18T21:25:43.040Z,13.30
2018-12-18T21:28:10.505Z,16.47
2018-12-18T21:30:40.019Z,16.77
2018-12-18T21:33:07.557Z,20.23
2018-12-18T21:35:34.982Z,21.17
2018-12-18T21:38:02.828Z,20.63
2018-12-18T21:40:30.233Z,26.13
2018-12-18T21:42:57.704Z,17.07
2018-12-18T21:45:25.827Z,23.37
2018-12-18T21:47:53.329Z,21.57
2018-12-18T21:50:21.557Z,23.30
2018-12-18T21:52:49.395Z,23.53
2018-12-18T21:55:17.419Z,22.23
2018-12-18T21:57:45.566Z,27.03
2018-12-18T22:00:13.006Z,23.30
2018-12-18T22:02:40.496Z,16.93
2018-12-18T22:05:08.024Z,19.50
2018-12-18T22:07:35.444Z,22.93
2018-12-18T22:10:05.078Z,20.87
2018-12-18T22:12:33.438Z,21.53
2018-12-18T22:15:01.286Z,20.33
2018-12-18T22:17:29.524Z,16.30
2018-12-18T22:19:57.063Z,21.10
2018-12-18T22:22:24.452Z,23.33
2018-12-18T22:24:52.408Z,21.23
2018-12-18T22:27:19.968Z,19.73
2018-12-18T22:29:47.394Z,22.37
2018-12-18T22:32:17.236Z,27.50
2018-12-18T22:34:45.644Z,25.53
2018-12-18T22:37:14.454Z,24.43
2018-12-18T22:39:42.800Z,30.10
2018-12-18T22:42:10.240Z,30.90
2018-12-18T22:44:37.732Z,30.60
2018-12-18T22:47:05.203Z,27.53
2018-12-18T22:49:32.688Z,33.60
2018-12-18T22:52:00.113Z,36.50
2018-12-18T22:54:27.651Z,52.33
2018-12-18T22:56:55.085Z,60.00
2018-12-18T22:59:22.611Z,42.13
2018-12-18T23:01:50.404Z,63.00
2018-12-18T23:04:17.810Z,52.63
2018-12-18T23:06:45.230Z,89.00
2018-12-18T23:09:15.929Z,61.03
2018-12-18T23:11:43.812Z,80.03
2018-12-18T23:14:11.288Z,50.13
2018-12-18T23:16:38.787Z,45.73
2018-12-18T23:19:06.217Z,43.40
2018-12-18T23:21:33.687Z,39.00
2018-12-18T23:24:01.112Z,52.80
2018-12-18T23:26:28.975Z,44.23
2018-12-18T23:28:56.407Z,35.87
2018-12-18T23:31:23.868Z,36.27
2018-12-18T23:33:51.340Z,53.80
2018-12-18T23:36:19.303Z,52.97
2018-12-18T23:38:46.756Z,51.07
2018-12-18T23:41:14.283Z,41.47
2018-12-18T23:43:43.044Z,40.63
2018-12-18T23:46:10.548Z,41.77
2018-12-18T23:48:39.810Z,39.57
2018-12-18T23:51:08.362Z,35.90
2018-12-18T23:53:36.213Z,40.70
2018-12-18T23:56:03.708Z,51.37
2018-12-18T23:58:31.151Z,51.67
